Community / Kommentare zu aktuellen Nachrichten / FAA drosselt Flugbetrieb zur US-Ostk...

Beitrag 1 - 3 von 3
Beitrag vom 09.06.2023 - 09:49 Uhr
Userbuslover
Pensionär
User (201 Beiträge)
Da fehlt mir das Verständnis, denn das aktuelle Wetter LGA sagt

KLGA 090651Z 30008KT 10SM SCT080 OVC150 17/08 A2972,

JFK ist nur unwesentlich anders, die Sichten gehen 10Z am 12. nur in Regenschauern auf 4SM herunter

Beitrag vom 09.06.2023 - 11:09 Uhr
UserDaedalos1504
User (549 Beiträge)
Da fehlt mir das Verständnis, denn das aktuelle Wetter LGA sagt

KLGA 090651Z 30008KT 10SM SCT080 OVC150 17/08 A2972,

JFK ist nur unwesentlich anders, die Sichten gehen 10Z am 12. nur in Regenschauern auf 4SM herunter

>
Die FAA wird ein wenig näher am Geschehen (gewesen) sein als Sie mit dem aktuellen Wetter.

Bis ein Artikel hier erscheint, ist Zeit ins Land gegangen. Die Einschränkungen waren Donnerstag. Das Wetter von heute sagt dazu also nicht viel aus.

Ich hoffe, ich konnte Ihrem Verständnis etwas weiterhelfen.
Beitrag vom 09.06.2023 - 14:18 Uhr
User2heavy4u
User (144 Beiträge)
Da fehlt mir das Verständnis, denn das aktuelle Wetter LGA sagt

KLGA 090651Z 30008KT 10SM SCT080 OVC150 17/08 A2972,

JFK ist nur unwesentlich anders, die Sichten gehen 10Z am 12. nur in Regenschauern auf 4SM herunter



Donnerstag Vormittag (Ortszeit) muss es wohl deutlich schlimmer gewesen sein:

KLGA 081051Z 32006KT 2 1/2SM FU HZ SCT000 BKN034 15/07 A2971 RMK AO2 SFC VIS 4 SLP060 FU HZ SCT000 T01500072
KLGA 081208Z 31008KT 3SM FU HZ SCT000 BKN030 16/07 A2972 RMK AO2 FU HZ SCT000 T01610067
KLGA 081251Z 31008KT 3SM FU HZ SCT000 BKN030 17/07 A2972 RMK AO2 SFC VIS 4 SLP064 FU HZ SCT000 T01670067
KLGA 081351Z 32008KT 3SM FU HZ SCT000 BKN035 18/07 A2972 RMK AO2 SFC VIS 4 SLP064 FU HZ SCT000 T01780067
KLGA 081451Z 34007KT 4SM FU HZ SCT000 SCT037 19/07 A2971 RMK AO2 SLP059 FU HZ SCT000 T01890067 58003
KLGA 081551Z 33007KT 5SM FU HZ SCT000 SCT035 BKN250 20/07 A2970 RMK AO2 SLP057 FU HZ SCT000 T02000067
KLGA 081651Z COR VRB06KT 5SM FU HZ SCT000 SCT035 SCT055 BKN250 21/07 A2969 RMK AO2 SLP053 FU HZ SCT000 T02060067
KLGA 081751Z 31008KT 6SM FU HZ FEW035 SCT055 BKN250 21/06 A2967 RMK AO2 SLP047 FU HZ SCT000 T02110061 10217 20156 58013
KLGA 081851Z 34004KT 8SM FEW050 FEW070 SCT085 22/06 A2968 RMK AO2 SLP051 T02170056
KLGA 081951Z 34011KT 6SM HZ FU SCT000 BKN060 OVC085 20/07 A2969 RMK AO2 SLP054 FU HZ SCT000 T02000072
KLGA 082051Z 01009KT 6SM FU HZ FEW000 FEW060 BKN085 BKN250 19/07 A2970 RMK AO2 SLP056 FU HZ FEW000 T01940072 51009
KLGA 082151Z 05006KT 6SM FU HZ FEW000 SCT070 OVC100 19/07 A2969 RMK AO2 SLP055 FU HZ FEW000 T01940072
KLGA 082251Z 06005KT 6SM FU HZ FEW000 SCT070 BKN090 BKN250 19/08 A2970 RMK AO2 SLP057 FU HZ FEW000 T01940078
KLGA 082351Z 33007KT 7SM FEW060 BKN090 BKN250 19/08 A2971 RMK AO2 SLP060 T01940078 10222 20189 53004

Denke das Problem dürfte auch eher die vertical visibilty gewesen sein.